createdAt,value
2023-05-17T00:00:31.437Z,36.07
2023-05-17T00:01:31.405Z,36.09
2023-05-17T00:02:31.417Z,36.08
2023-05-17T00:03:31.355Z,36.09
2023-05-17T00:04:31.347Z,36.07
2023-05-17T00:05:31.279Z,36.08
2023-05-17T00:06:31.287Z,36.06
2023-05-17T00:07:31.230Z,36.06
2023-05-17T00:08:31.177Z,36.06
2023-05-17T00:09:31.152Z,36.05
2023-05-17T00:10:31.128Z,36.08
2023-05-17T00:11:31.248Z,36.07
2023-05-17T00:12:31.064Z,36.07
2023-05-17T00:13:31.040Z,36.07
2023-05-17T00:14:31.009Z,36.05
2023-05-17T00:15:30.992Z,36.05
2023-05-17T00:16:30.954Z,36.07
2023-05-17T00:17:30.989Z,36.08
2023-05-17T00:18:30.938Z,36.06
2023-05-17T00:19:30.917Z,36.06
2023-05-17T00:20:30.834Z,36.06
2023-05-17T00:21:30.783Z,36.05
2023-05-17T00:22:30.754Z,36.06
2023-05-17T00:23:30.715Z,36.05
2023-05-17T00:24:30.677Z,36.05
2023-05-17T00:25:30.908Z,36.06
2023-05-17T00:26:30.608Z,36.07
2023-05-17T00:27:30.660Z,36.06
2023-05-17T00:28:30.542Z,36.06
2023-05-17T00:29:30.537Z,36.07
2023-05-17T00:30:30.482Z,36.06
2023-05-17T00:31:30.461Z,36.08
2023-05-17T00:32:30.431Z,36.07
2023-05-17T00:33:30.381Z,36.05
2023-05-17T00:34:30.383Z,36.04
2023-05-17T00:35:30.587Z,36.04
2023-05-17T00:36:30.277Z,36.06
2023-05-17T00:37:30.270Z,36.05
2023-05-17T00:38:30.208Z,36.07
2023-05-17T00:39:30.186Z,36.04
2023-05-17T00:40:30.167Z,36.06
2023-05-17T00:41:30.110Z,36.07
2023-05-17T00:42:30.094Z,36.06
2023-05-17T00:43:30.113Z,36.05
2023-05-17T00:44:30.024Z,36.07
2023-05-17T00:45:30.152Z,36.05
2023-05-17T00:46:29.940Z,36.05
2023-05-17T00:47:29.972Z,36.05
2023-05-17T00:48:29.973Z,36.06
2023-05-17T00:49:29.866Z,36.05
2023-05-17T00:50:29.806Z,36.06
2023-05-17T00:51:29.792Z,36.05
2023-05-17T00:52:29.725Z,36.05
2023-05-17T00:53:29.694Z,36.06
2023-05-17T00:54:29.662Z,36.05
2023-05-17T00:55:29.932Z,36.05
2023-05-17T00:56:29.605Z,36.05
2023-05-17T00:57:29.603Z,36.06
2023-05-17T00:58:29.531Z,36.06
2023-05-17T00:59:29.604Z,36.04
2023-05-17T01:00:29.477Z,36.07
2023-05-17T01:01:29.467Z,36.05
2023-05-17T01:02:29.693Z,36.03
2023-05-17T01:03:29.480Z,36.05
2023-05-17T01:04:29.363Z,36.07
2023-05-17T01:05:29.556Z,36.02
2023-05-17T01:06:29.323Z,36.04
2023-05-17T01:07:29.286Z,36.06
2023-05-17T01:08:29.265Z,36.04
2023-05-17T01:09:29.231Z,36.02
2023-05-17T01:10:29.181Z,36.03
2023-05-17T01:11:29.156Z,36.03
2023-05-17T01:12:29.141Z,36.03
2023-05-17T01:13:29.101Z,36.03
2023-05-17T01:14:29.100Z,36.04
2023-05-17T01:15:29.435Z,36.04
2023-05-17T01:16:29.013Z,36.06
2023-05-17T01:17:29.082Z,36.01
2023-05-17T01:18:29.101Z,36.04
2023-05-17T01:19:29.001Z,36.02
2023-05-17T01:20:29.015Z,36.06
2023-05-17T01:21:28.868Z,36.02
2023-05-17T01:22:28.840Z,36.03
2023-05-17T01:23:28.820Z,36.04
2023-05-17T01:24:28.783Z,36.05
2023-05-17T01:25:28.998Z,36.04
2023-05-17T01:26:28.725Z,36.03
2023-05-17T01:27:28.703Z,36.03
2023-05-17T01:28:28.660Z,36.02
2023-05-17T01:29:28.631Z,36.04
2023-05-17T01:30:28.598Z,36.01
2023-05-17T01:31:28.638Z,36.02
2023-05-17T01:32:28.626Z,36.02
2023-05-17T01:33:28.663Z,36.03
2023-05-17T01:34:28.511Z,36.04
2023-05-17T01:35:28.641Z,36.05
2023-05-17T01:36:28.448Z,36.02
2023-05-17T01:37:28.425Z,36.03
2023-05-17T01:38:28.412Z,36.04
2023-05-17T01:39:28.478Z,36.03
2023-05-17T01:40:28.346Z,36.03
2023-05-17T01:41:28.374Z,36.03
2023-05-17T01:42:28.321Z,36.01
2023-05-17T01:43:28.273Z,36.01
2023-05-17T01:44:28.242Z,35.99
2023-05-17T01:45:28.359Z,36.03
2023-05-17T01:46:28.185Z,36.03
2023-05-17T01:47:28.248Z,36.00
2023-05-17T01:48:28.141Z,36.01
2023-05-17T01:49:28.087Z,36.02
2023-05-17T01:50:28.065Z,36.03
2023-05-17T01:51:28.031Z,36.01
2023-05-17T01:52:28.005Z,36.02
2023-05-17T01:53:27.967Z,36.00
2023-05-17T01:54:27.948Z,36.02
2023-05-17T01:55:28.133Z,36.03
2023-05-17T01:56:27.915Z,36.02
2023-05-17T01:57:27.867Z,36.02
2023-05-17T01:58:27.835Z,36.02
2023-05-17T01:59:27.819Z,36.02
2023-05-17T02:00:27.794Z,36.03
2023-05-17T02:01:27.774Z,36.02
2023-05-17T02:02:27.734Z,36.05
2023-05-17T02:03:27.839Z,36.01
2023-05-17T02:04:27.712Z,36.01
2023-05-17T02:05:27.872Z,36.00
2023-05-17T02:06:27.631Z,36.03
2023-05-17T02:07:27.628Z,35.97
2023-05-17T02:08:27.589Z,36.01
2023-05-17T02:09:27.571Z,36.03
2023-05-17T02:10:27.539Z,35.99
2023-05-17T02:11:27.513Z,36.03
2023-05-17T02:12:27.492Z,36.01
2023-05-17T02:13:27.475Z,35.99
2023-05-17T02:14:27.454Z,35.98
2023-05-17T02:15:27.578Z,35.99
2023-05-17T02:16:27.409Z,36.00
2023-05-17T02:17:27.431Z,35.97
2023-05-17T02:18:27.410Z,35.97
2023-05-17T02:19:27.531Z,35.99
2023-05-17T02:20:27.315Z,36.00
2023-05-17T02:21:27.250Z,36.01
2023-05-17T02:22:27.247Z,35.98
2023-05-17T02:23:27.208Z,35.98
2023-05-17T02:24:27.182Z,36.01
2023-05-17T02:25:27.384Z,35.99
2023-05-17T02:26:27.150Z,36.00
2023-05-17T02:27:27.121Z,35.98
2023-05-17T02:28:27.102Z,36.00
2023-05-17T02:29:27.069Z,36.00
2023-05-17T02:30:27.059Z,36.03
2023-05-17T02:31:27.051Z,35.99
2023-05-17T02:32:27.024Z,35.98
2023-05-17T02:33:27.109Z,35.99
2023-05-17T02:34:26.969Z,35.98
2023-05-17T02:35:27.211Z,35.98
2023-05-17T02:36:26.884Z,35.99
2023-05-17T02:37:26.853Z,36.00
2023-05-17T02:38:26.831Z,35.97
2023-05-17T02:39:26.790Z,35.99
2023-05-17T02:40:26.792Z,35.98
2023-05-17T02:41:26.747Z,35.98
2023-05-17T02:42:26.708Z,35.98
2023-05-17T02:43:26.689Z,35.99
2023-05-17T02:44:26.658Z,35.98
2023-05-17T02:45:26.704Z,35.97
2023-05-17T02:46:26.603Z,35.98
2023-05-17T02:47:26.611Z,35.81
2023-05-17T02:48:26.565Z,35.38
2023-05-17T02:49:26.513Z,35.11
2023-05-17T02:50:26.485Z,34.18
2023-05-17T02:51:26.517Z,33.62
2023-05-17T02:52:26.425Z,33.26
2023-05-17T02:53:26.385Z,33.01
2023-05-17T02:54:26.376Z,32.88
2023-05-17T02:55:26.600Z,32.72
2023-05-17T02:56:26.291Z,32.56
2023-05-17T02:57:26.265Z,32.48
2023-05-17T02:58:26.247Z,32.30
2023-05-17T02:59:26.199Z,32.00
2023-05-17T03:00:26.192Z,31.93
2023-05-17T03:01:26.131Z,31.77
2023-05-17T03:02:26.186Z,31.70
2023-05-17T03:03:26.152Z,31.60
2023-05-17T03:04:26.094Z,31.37
2023-05-17T03:05:26.289Z,31.22
2023-05-17T03:06:26.076Z,31.23
2023-05-17T03:07:26.131Z,31.07
2023-05-17T03:08:26.068Z,30.98
2023-05-17T03:09:26.069Z,30.81
2023-05-17T03:10:26.072Z,30.65
2023-05-17T03:11:26.072Z,30.57
2023-05-17T03:12:27.855Z,30.50
2023-05-17T03:13:26.039Z,30.45
2023-05-17T03:14:26.005Z,30.40
2023-05-17T03:15:26.065Z,30.30
2023-05-17T03:16:25.950Z,30.38
2023-05-17T03:17:25.994Z,30.24
2023-05-17T03:18:26.045Z,30.27
2023-05-17T03:19:25.953Z,30.19
2023-05-17T03:20:25.842Z,30.18
2023-05-17T03:21:25.798Z,30.05
2023-05-17T03:22:25.782Z,29.96
2023-05-17T03:23:25.823Z,29.99
2023-05-17T03:24:25.734Z,29.96
2023-05-17T03:25:25.832Z,29.86
2023-05-17T03:26:25.675Z,29.79
2023-05-17T03:27:25.701Z,29.76
2023-05-17T03:28:25.621Z,29.71
2023-05-17T03:29:25.606Z,29.71
2023-05-17T03:30:25.630Z,29.68
2023-05-17T03:31:25.559Z,29.65
2023-05-17T03:32:25.624Z,29.59
2023-05-17T03:33:25.651Z,29.59
2023-05-17T03:34:25.513Z,29.54
2023-05-17T03:35:25.476Z,29.53
2023-05-17T03:36:25.458Z,29.53
2023-05-17T03:37:25.454Z,29.53
2023-05-17T03:38:25.427Z,29.44
2023-05-17T03:39:25.581Z,29.48
2023-05-17T03:40:25.370Z,29.44
2023-05-17T03:41:25.344Z,29.39
2023-05-17T03:42:25.318Z,29.38
2023-05-17T03:43:25.304Z,29.30
2023-05-17T03:44:25.260Z,29.26
2023-05-17T03:45:25.239Z,29.22
2023-05-17T03:46:25.210Z,29.29
2023-05-17T03:47:25.192Z,29.24
2023-05-17T03:48:25.248Z,29.16
2023-05-17T03:49:25.167Z,29.18
2023-05-17T03:50:25.212Z,29.17
2023-05-17T03:51:25.240Z,29.12
2023-05-17T03:52:25.288Z,29.15
2023-05-17T03:53:25.259Z,29.16
2023-05-17T03:54:25.291Z,29.11
2023-05-17T03:55:25.268Z,29.11
2023-05-17T03:56:25.247Z,29.16
2023-05-17T03:57:25.222Z,29.14
2023-05-17T03:58:25.211Z,29.11
2023-05-17T03:59:25.184Z,29.19
2023-05-17T04:00:25.169Z,29.13
2023-05-17T04:01:25.137Z,29.12
2023-05-17T04:02:25.155Z,29.11
2023-05-17T04:03:25.110Z,29.12
2023-05-17T04:04:25.200Z,29.12
2023-05-17T04:05:25.102Z,29.12
2023-05-17T04:06:25.035Z,29.10
2023-05-17T04:07:25.030Z,29.07
2023-05-17T04:08:25.024Z,29.04
2023-05-17T04:09:24.971Z,29.07
2023-05-17T04:10:24.983Z,29.07
2023-05-17T04:11:25.055Z,29.07
2023-05-17T04:12:24.909Z,29.04
2023-05-17T04:13:24.902Z,29.01
2023-05-17T04:14:24.966Z,29.04
2023-05-17T04:15:24.858Z,29.08
2023-05-17T04:16:24.860Z,29.01
2023-05-17T04:17:24.863Z,28.99
2023-05-17T04:18:24.949Z,29.01
2023-05-17T04:19:24.879Z,29.23
2023-05-17T04:20:24.787Z,29.32
2023-05-17T04:21:24.761Z,29.48
2023-05-17T04:22:24.756Z,29.54
2023-05-17T04:23:24.713Z,29.95
2023-05-17T04:24:24.708Z,30.27
2023-05-17T04:25:24.694Z,30.59
2023-05-17T04:26:24.678Z,30.69
2023-05-17T04:27:24.653Z,30.77
2023-05-17T04:28:24.623Z,30.79
2023-05-17T04:29:24.611Z,30.78
2023-05-17T04:30:24.568Z,30.95
2023-05-17T04:31:24.553Z,30.95
2023-05-17T04:32:24.546Z,30.88
2023-05-17T04:33:24.578Z,30.87
2023-05-17T04:34:24.491Z,31.08
2023-05-17T04:35:24.468Z,31.12
2023-05-17T04:36:24.449Z,31.06
2023-05-17T04:37:24.441Z,31.17
2023-05-17T04:38:24.440Z,31.22
2023-05-17T04:39:24.389Z,31.18
2023-05-17T04:40:24.383Z,31.14
2023-05-17T04:41:24.341Z,31.15
2023-05-17T04:42:24.338Z,31.19
2023-05-17T04:43:24.395Z,31.18
2023-05-17T04:44:24.379Z,31.20
2023-05-17T04:45:24.412Z,31.10
2023-05-17T04:46:24.444Z,31.30
2023-05-17T04:47:24.528Z,31.18
2023-05-17T04:48:24.551Z,31.21
2023-05-17T04:49:24.495Z,31.20
2023-05-17T04:50:24.528Z,31.11
2023-05-17T04:51:24.564Z,31.22
2023-05-17T04:52:24.623Z,31.11
2023-05-17T04:53:24.660Z,31.19
2023-05-17T04:54:24.736Z,31.13
2023-05-17T04:55:24.766Z,31.27
2023-05-17T04:56:24.803Z,31.30
2023-05-17T04:57:24.855Z,31.24
2023-05-17T04:58:24.917Z,31.22
2023-05-17T04:59:24.948Z,31.28
2023-05-17T05:00:24.973Z,31.09
2023-05-17T05:01:25.041Z,31.03
2023-05-17T05:02:25.136Z,30.88
2023-05-17T05:03:25.126Z,31.00
2023-05-17T05:04:25.200Z,30.86
2023-05-17T05:05:25.239Z,30.77
2023-05-17T05:06:25.238Z,30.50
2023-05-17T05:07:25.298Z,30.50
2023-05-17T05:08:25.268Z,30.53
2023-05-17T05:09:25.295Z,30.39
2023-05-17T05:10:25.302Z,30.41
2023-05-17T05:11:25.342Z,30.36
2023-05-17T05:12:25.416Z,30.55
2023-05-17T05:13:25.454Z,30.45
2023-05-17T05:14:25.425Z,30.47
2023-05-17T05:15:25.503Z,30.40
2023-05-17T05:16:25.471Z,30.41
2023-05-17T05:17:25.576Z,30.44
2023-05-17T05:18:25.652Z,30.57
2023-05-17T05:19:25.563Z,30.64
2023-05-17T05:20:27.721Z,30.63
2023-05-17T05:21:25.579Z,30.59
2023-05-17T05:22:25.581Z,30.67
2023-05-17T05:23:25.606Z,30.70
2023-05-17T05:24:25.613Z,30.47
2023-05-17T05:25:25.618Z,30.58
2023-05-17T05:26:25.607Z,30.51
2023-05-17T05:27:25.615Z,30.55
2023-05-17T05:28:25.628Z,30.57
2023-05-17T05:29:25.628Z,30.49
2023-05-17T05:30:25.652Z,30.53
2023-05-17T05:31:25.785Z,30.13
2023-05-17T05:32:25.747Z,30.07
2023-05-17T05:33:25.766Z,30.36
2023-05-17T05:34:25.605Z,30.13
2023-05-17T05:35:25.591Z,30.38
2023-05-17T05:36:25.595Z,30.27
2023-05-17T05:37:25.554Z,30.28
2023-05-17T05:38:25.558Z,30.49
2023-05-17T05:39:25.534Z,30.41
2023-05-17T05:40:25.560Z,30.17
2023-05-17T05:41:25.544Z,30.21
2023-05-17T05:42:25.549Z,30.85
2023-05-17T05:43:25.685Z,30.81
2023-05-17T05:44:26.073Z,30.78
2023-05-17T05:45:25.575Z,30.59
2023-05-17T05:46:25.643Z,30.87
2023-05-17T05:48:44.966Z,30.97
2023-05-17T05:49:44.725Z,31.32
2023-05-17T05:50:44.716Z,31.33
2023-05-17T05:51:44.729Z,31.49
2023-05-17T05:52:44.733Z,31.86
2023-05-17T05:53:44.702Z,31.68
2023-05-17T05:54:44.713Z,31.48
2023-05-17T05:55:44.707Z,31.18
2023-05-17T05:56:44.723Z,30.82
2023-05-17T05:57:44.773Z,30.67
2023-05-17T05:58:44.693Z,30.22
2023-05-17T05:59:44.732Z,30.19
2023-05-17T06:00:44.794Z,30.04
2023-05-17T06:01:44.693Z,30.27
2023-05-17T06:02:44.725Z,30.28
2023-05-17T06:03:44.700Z,30.17
2023-05-17T06:04:46.007Z,30.03
2023-05-17T06:05:44.804Z,30.12
2023-05-17T06:06:44.770Z,29.89
2023-05-17T06:07:44.729Z,29.95
2023-05-17T06:08:44.729Z,29.93
2023-05-17T06:09:44.732Z,29.88
2023-05-17T06:10:44.781Z,30.06
2023-05-17T06:11:44.745Z,30.01
2023-05-17T06:12:44.757Z,29.74
2023-05-17T06:13:44.772Z,29.72
2023-05-17T06:14:44.779Z,29.84
2023-05-17T06:15:44.823Z,29.58
2023-05-17T06:16:44.784Z,29.74
2023-05-17T06:17:44.836Z,29.62
2023-05-17T06:18:44.869Z,29.65
2023-05-17T06:19:44.828Z,29.70
2023-05-17T06:20:44.889Z,30.13
2023-05-17T06:21:44.813Z,29.78
2023-05-17T06:22:44.822Z,29.66
2023-05-17T06:23:44.851Z,29.84
2023-05-17T06:24:44.861Z,29.87
2023-05-17T06:25:44.812Z,29.94
2023-05-17T06:26:44.841Z,29.82
2023-05-17T06:27:44.987Z,30.00
2023-05-17T06:28:44.854Z,29.95
2023-05-17T06:29:44.853Z,30.12
2023-05-17T06:30:44.844Z,30.57
2023-05-17T06:31:44.851Z,30.72
2023-05-17T06:32:44.938Z,30.98
2023-05-17T06:33:44.961Z,31.19
2023-05-17T06:34:44.892Z,31.21
2023-05-17T06:35:56.250Z,31.35
2023-05-17T06:36:46.014Z,31.32
2023-05-17T06:37:44.939Z,31.25
2023-05-17T06:38:44.925Z,31.01
2023-05-17T06:39:51.624Z,31.17
2023-05-17T06:40:46.032Z,31.19
2023-05-17T06:41:44.917Z,31.11
2023-05-17T06:42:44.980Z,30.90
2023-05-17T06:43:44.923Z,30.19
2023-05-17T06:44:44.971Z,29.81
2023-05-17T06:45:44.929Z,29.86
2023-05-17T06:46:44.939Z,30.30
2023-05-17T06:47:45.028Z,30.06
2023-05-17T06:48:45.024Z,30.07
2023-05-17T06:49:44.923Z,30.12
2023-05-17T06:50:44.977Z,30.45
2023-05-17T06:51:44.932Z,30.31
2023-05-17T06:52:45.015Z,30.41
2023-05-17T06:53:44.948Z,30.04
2023-05-17T06:54:44.929Z,29.82
2023-05-17T06:55:44.962Z,29.65
2023-05-17T06:56:45.035Z,29.42
2023-05-17T06:57:45.101Z,29.81
2023-05-17T06:58:45.149Z,29.97
2023-05-17T06:59:45.187Z,30.23
2023-05-17T07:00:45.328Z,30.67
2023-05-17T07:01:45.274Z,30.71
2023-05-17T07:02:45.353Z,30.76
2023-05-17T07:03:45.651Z,30.85
2023-05-17T07:04:45.408Z,30.91
2023-05-17T07:05:45.428Z,30.99
2023-05-17T07:06:45.362Z,31.26
2023-05-17T07:07:45.373Z,31.25
2023-05-17T07:08:45.442Z,31.25
2023-05-17T07:09:45.353Z,31.08
2023-05-17T07:10:45.365Z,31.16
2023-05-17T07:11:45.369Z,31.14
2023-05-17T07:12:45.379Z,31.31
2023-05-17T07:13:46.138Z,31.29
2023-05-17T07:14:45.373Z,31.36
2023-05-17T07:15:45.366Z,31.39
2023-05-17T07:16:45.372Z,31.41
2023-05-17T07:17:45.449Z,31.43
2023-05-17T07:18:45.495Z,31.47
2023-05-17T07:19:45.566Z,31.59
2023-05-17T07:20:45.551Z,31.65
2023-05-17T07:21:45.507Z,31.67
2023-05-17T07:22:45.512Z,31.71
2023-05-17T07:23:45.532Z,31.73
2023-05-17T07:24:45.724Z,31.78
2023-05-17T07:25:45.505Z,31.79
2023-05-17T07:26:45.513Z,31.81
2023-05-17T07:27:45.502Z,31.85
2023-05-17T07:28:45.481Z,31.92
2023-05-17T07:29:45.561Z,32.00
2023-05-17T07:30:45.472Z,32.10
2023-05-17T07:31:45.466Z,32.13
2023-05-17T07:32:45.506Z,32.19
2023-05-17T07:33:45.503Z,32.23
2023-05-17T07:34:45.540Z,32.44
2023-05-17T07:35:45.427Z,32.46
2023-05-17T07:36:45.444Z,32.54
2023-05-17T07:37:45.437Z,32.54
2023-05-17T07:38:45.450Z,32.48
2023-05-17T07:39:45.495Z,32.56
2023-05-17T07:40:45.906Z,32.09
2023-05-17T07:41:45.569Z,31.77
2023-05-17T07:42:45.588Z,31.74
2023-05-17T07:43:45.613Z,31.66
2023-05-17T07:44:45.622Z,31.72
2023-05-17T07:45:45.656Z,31.94
2023-05-17T07:46:45.934Z,32.23
2023-05-17T07:47:45.854Z,32.23
2023-05-17T07:48:45.924Z,32.07
2023-05-17T07:49:45.797Z,32.04
2023-05-17T07:50:45.897Z,32.04
2023-05-17T07:51:45.868Z,32.05
2023-05-17T07:52:46.024Z,32.03
2023-05-17T07:53:45.929Z,31.97
2023-05-17T07:54:45.956Z,31.96
2023-05-17T07:55:46.957Z,31.91
2023-05-17T07:56:46.023Z,32.11
2023-05-17T07:57:46.046Z,32.21
2023-05-17T07:58:46.055Z,32.27
2023-05-17T07:59:46.116Z,32.23
2023-05-17T08:00:46.125Z,32.23
2023-05-17T08:01:46.158Z,32.17
2023-05-17T08:02:46.233Z,32.25
2023-05-17T08:03:46.155Z,32.11
2023-05-17T08:04:46.220Z,32.10
2023-05-17T08:05:46.192Z,32.40
2023-05-17T08:06:46.170Z,32.33
2023-05-17T08:07:46.158Z,32.25
2023-05-17T08:08:46.123Z,32.07
2023-05-17T08:09:46.116Z,32.27
2023-05-17T08:10:46.353Z,32.15
2023-05-17T08:11:46.169Z,32.06
2023-05-17T08:12:46.245Z,32.13
2023-05-17T08:13:46.076Z,32.24
2023-05-17T08:14:46.064Z,32.42
2023-05-17T08:15:46.109Z,32.24
2023-05-17T08:16:46.050Z,32.28
2023-05-17T08:17:46.110Z,32.27
2023-05-17T08:18:46.184Z,32.41
2023-05-17T08:19:46.102Z,32.25
2023-05-17T08:20:46.019Z,32.18
2023-05-17T08:21:46.052Z,32.22
2023-05-17T08:22:46.043Z,31.85
2023-05-17T08:23:46.067Z,32.17
2023-05-17T08:24:46.176Z,32.25
2023-05-17T08:25:46.099Z,32.04
2023-05-17T08:26:46.088Z,32.31
2023-05-17T08:27:46.076Z,32.25
2023-05-17T08:28:46.082Z,32.17
2023-05-17T08:29:46.055Z,32.33
2023-05-17T08:30:46.050Z,32.34
2023-05-17T08:31:46.159Z,32.45
2023-05-17T08:32:46.204Z,32.12
2023-05-17T08:33:46.262Z,31.77
2023-05-17T08:34:46.055Z,31.61
2023-05-17T08:35:46.135Z,31.08
2023-05-17T08:36:46.034Z,30.90
2023-05-17T08:37:45.995Z,31.31
2023-05-17T08:38:45.997Z,31.07
2023-05-17T08:39:46.003Z,31.10
2023-05-17T08:40:45.953Z,31.15
2023-05-17T08:41:45.962Z,30.74
2023-05-17T08:42:45.955Z,30.51
2023-05-17T08:43:45.956Z,30.84
2023-05-17T08:44:45.933Z,31.10
2023-05-17T08:45:45.906Z,31.18
2023-05-17T08:46:45.914Z,31.28
2023-05-17T08:47:45.956Z,30.94
2023-05-17T08:48:45.896Z,31.26
2023-05-17T08:49:48.166Z,31.05
2023-05-17T08:50:45.978Z,31.10
2023-05-17T08:51:45.988Z,31.80
2023-05-17T08:52:46.100Z,31.47
2023-05-17T08:53:45.962Z,30.05
2023-05-17T08:54:45.949Z,30.14
2023-05-17T08:55:45.963Z,29.53
2023-05-17T08:56:45.951Z,29.95
2023-05-17T08:57:45.961Z,30.00
2023-05-17T08:58:56.505Z,29.87
2023-05-17T08:59:46.960Z,29.67
2023-05-17T09:00:45.934Z,30.20
2023-05-17T09:01:45.955Z,30.41
2023-05-17T09:02:46.081Z,30.66
2023-05-17T09:03:46.061Z,30.59
2023-05-17T09:04:46.048Z,31.05
2023-05-17T09:05:45.977Z,30.67
2023-05-17T09:06:45.975Z,30.85
2023-05-17T09:07:45.953Z,31.03
2023-05-17T09:08:45.984Z,31.06
2023-05-17T09:09:45.951Z,31.14
2023-05-17T09:10:45.937Z,31.29
2023-05-17T09:11:45.950Z,31.49
2023-05-17T09:12:45.951Z,31.61
2023-05-17T09:13:46.001Z,31.75
2023-05-17T09:14:46.044Z,31.76
2023-05-17T09:15:46.072Z,31.90
2023-05-17T09:16:46.166Z,32.02
2023-05-17T09:17:46.157Z,31.98
2023-05-17T09:18:46.254Z,32.09
2023-05-17T09:19:46.206Z,32.07
2023-05-17T09:20:46.100Z,32.13
2023-05-17T09:21:46.072Z,32.40
2023-05-17T09:22:46.075Z,32.38
2023-05-17T09:23:54.265Z,32.15
2023-05-17T09:24:47.065Z,32.20
2023-05-17T09:25:46.030Z,32.41
2023-05-17T09:26:46.219Z,32.51
2023-05-17T09:27:46.011Z,32.59
2023-05-17T09:28:46.014Z,32.69
2023-05-17T09:29:45.993Z,32.75
2023-05-17T09:30:45.962Z,32.79
2023-05-17T09:31:45.965Z,33.09
2023-05-17T09:32:46.101Z,33.10
2023-05-17T09:33:46.050Z,33.14
2023-05-17T09:34:45.974Z,33.01
2023-05-17T09:35:45.889Z,32.99
2023-05-17T09:36:45.864Z,33.24
2023-05-17T09:37:45.864Z,33.62
2023-05-17T09:38:45.929Z,33.50
2023-05-17T09:39:45.814Z,33.43
2023-05-17T09:40:45.828Z,33.76
2023-05-17T09:41:45.874Z,33.88
2023-05-17T09:42:45.806Z,33.47
2023-05-17T09:43:45.924Z,33.84
2023-05-17T09:44:45.882Z,33.97
2023-05-17T09:45:45.967Z,33.98
2023-05-17T09:46:46.089Z,34.02
2023-05-17T09:47:46.082Z,33.86
2023-05-17T09:48:46.106Z,33.70
2023-05-17T09:49:46.086Z,33.48
2023-05-17T09:50:46.163Z,33.31
2023-05-17T09:51:46.204Z,33.10
2023-05-17T09:52:46.243Z,32.98
2023-05-17T09:53:46.273Z,32.97
2023-05-17T09:54:46.292Z,32.98
2023-05-17T09:55:46.313Z,32.88
2023-05-17T09:56:46.346Z,32.74
2023-05-17T09:57:46.371Z,32.67
2023-05-17T09:58:46.393Z,32.55
2023-05-17T09:59:46.419Z,32.38
2023-05-17T10:00:47.295Z,31.90
2023-05-17T10:01:46.449Z,31.69
2023-05-17T10:02:46.563Z,31.66
2023-05-17T10:03:46.519Z,31.56
2023-05-17T10:04:46.537Z,31.87
2023-05-17T10:05:46.503Z,32.03
2023-05-17T10:06:50.809Z,31.88
2023-05-17T10:07:47.469Z,31.28
2023-05-17T10:08:46.483Z,30.94
2023-05-17T10:09:46.453Z,31.40
2023-05-17T10:10:46.427Z,31.45
2023-05-17T10:11:46.435Z,31.33
2023-05-17T10:12:46.459Z,31.14
2023-05-17T10:13:46.414Z,31.42
2023-05-17T10:14:46.392Z,31.20
2023-05-17T10:15:46.363Z,31.09
2023-05-17T10:16:46.386Z,31.17
2023-05-17T10:17:46.402Z,31.17
2023-05-17T10:18:46.468Z,31.08
2023-05-17T10:19:46.533Z,30.91
2023-05-17T10:20:46.327Z,30.73
2023-05-17T10:21:46.287Z,30.95
2023-05-17T10:22:46.297Z,30.72
2023-05-17T10:23:46.275Z,30.81
2023-05-17T10:24:46.251Z,30.90
2023-05-17T10:25:46.264Z,30.99
2023-05-17T10:26:46.220Z,30.95
2023-05-17T10:27:46.248Z,30.78
2023-05-17T10:28:46.224Z,30.86
2023-05-17T10:29:49.267Z,30.78
2023-05-17T10:30:46.176Z,30.68
2023-05-17T10:31:46.157Z,30.60
2023-05-17T10:32:46.263Z,30.63
2023-05-17T10:33:46.210Z,30.57
2023-05-17T10:34:51.819Z,30.74
2023-05-17T10:35:47.097Z,30.74
2023-05-17T10:36:46.157Z,30.83
2023-05-17T10:37:46.068Z,30.85
2023-05-17T10:38:46.066Z,30.80
2023-05-17T10:39:46.026Z,30.80
2023-05-17T10:40:46.030Z,30.54
2023-05-17T10:41:46.011Z,30.51
2023-05-17T10:42:46.000Z,30.67
2023-05-17T10:43:45.990Z,30.69
2023-05-17T10:44:45.959Z,30.59
2023-05-17T10:45:45.952Z,30.73
2023-05-17T10:46:45.916Z,30.68
2023-05-17T10:47:45.942Z,30.74
2023-05-17T10:48:45.956Z,30.68
2023-05-17T10:49:45.862Z,30.53
2023-05-17T10:50:54.560Z,30.52
2023-05-17T10:51:46.829Z,30.48
2023-05-17T10:52:45.824Z,30.56
2023-05-17T10:53:45.813Z,30.37
2023-05-17T10:54:45.796Z,30.08
2023-05-17T10:55:45.799Z,30.06
2023-05-17T10:56:45.760Z,29.96
2023-05-17T10:57:50.940Z,29.96
2023-05-17T10:58:46.777Z,30.06
2023-05-17T10:59:45.711Z,30.14
2023-05-17T11:00:45.691Z,30.24
2023-05-17T11:01:45.698Z,30.31
2023-05-17T11:02:45.700Z,30.65
2023-05-17T11:03:45.658Z,30.85
2023-05-17T11:04:45.705Z,30.50
2023-05-17T11:05:45.719Z,30.67
2023-05-17T11:06:45.770Z,30.75
2023-05-17T11:07:45.625Z,30.72
2023-05-17T11:08:45.627Z,30.56
2023-05-17T11:09:45.607Z,30.47
2023-05-17T11:10:45.620Z,30.58
2023-05-17T11:11:45.559Z,30.63
2023-05-17T11:12:45.577Z,30.58
2023-05-17T11:13:45.535Z,30.58
2023-05-17T11:14:45.584Z,30.51
2023-05-17T11:15:45.512Z,30.29
2023-05-17T11:16:45.485Z,30.46
2023-05-17T11:17:45.493Z,30.45
2023-05-17T11:18:45.560Z,30.48
2023-05-17T11:19:45.517Z,30.49
2023-05-17T11:20:45.621Z,30.51
2023-05-17T11:21:45.410Z,30.31
2023-05-17T11:22:45.400Z,30.05
2023-05-17T11:23:45.392Z,29.76
2023-05-17T11:24:45.363Z,29.98
2023-05-17T11:25:45.360Z,30.01
2023-05-17T11:26:45.341Z,30.08
2023-05-17T11:27:45.355Z,29.92
2023-05-17T11:28:45.324Z,29.80
2023-05-17T11:29:45.368Z,30.12
2023-05-17T11:30:45.282Z,30.18
2023-05-17T11:31:45.333Z,30.06
2023-05-17T11:32:45.334Z,29.94
2023-05-17T11:33:45.325Z,29.82
2023-05-17T11:34:45.226Z,29.83
2023-05-17T11:35:45.221Z,30.00
2023-05-17T11:36:45.205Z,30.20
2023-05-17T11:37:45.207Z,30.22
2023-05-17T11:38:46.548Z,30.07
2023-05-17T11:39:45.199Z,30.21
2023-05-17T11:40:45.198Z,30.31
2023-05-17T11:41:45.164Z,30.27
2023-05-17T11:42:45.133Z,30.23
2023-05-17T11:43:45.149Z,30.17
2023-05-17T11:44:45.120Z,30.16
2023-05-17T11:45:45.164Z,30.19
2023-05-17T11:46:45.102Z,30.13
2023-05-17T11:47:45.138Z,30.21
2023-05-17T11:48:45.129Z,30.24
2023-05-17T11:49:45.081Z,30.24
2023-05-17T11:50:45.064Z,30.27
2023-05-17T11:51:45.196Z,30.33
2023-05-17T11:52:45.041Z,30.40
2023-05-17T11:53:45.042Z,30.45
2023-05-17T11:54:45.014Z,30.34
2023-05-17T11:55:45.028Z,30.37
2023-05-17T11:56:44.991Z,30.48
2023-05-17T11:57:44.960Z,30.47
2023-05-17T11:58:44.978Z,30.55
2023-05-17T11:59:44.940Z,30.59
2023-05-17T12:00:44.921Z,30.60
2023-05-17T12:01:44.918Z,30.79
2023-05-17T12:02:44.934Z,30.66
2023-05-17T12:03:44.938Z,30.68
2023-05-17T12:04:44.916Z,30.71
2023-05-17T12:05:44.903Z,30.73
2023-05-17T12:06:45.057Z,30.82
2023-05-17T12:07:44.845Z,30.86
2023-05-17T12:08:44.834Z,30.88
2023-05-17T12:09:44.833Z,30.69
2023-05-17T12:10:44.833Z,30.61
2023-05-17T12:11:44.815Z,30.60
2023-05-17T12:12:44.785Z,30.60
2023-05-17T12:13:44.864Z,30.56
2023-05-17T12:14:44.769Z,30.60
2023-05-17T12:15:44.752Z,30.57
2023-05-17T12:16:44.742Z,30.55
2023-05-17T12:17:44.824Z,30.52
2023-05-17T12:18:45.006Z,30.57
2023-05-17T12:19:44.755Z,30.55
2023-05-17T12:20:44.769Z,30.50
2023-05-17T12:21:44.875Z,30.54
2023-05-17T12:22:44.761Z,30.54
2023-05-17T12:23:44.710Z,30.51
2023-05-17T12:24:44.722Z,30.49
2023-05-17T12:25:44.684Z,30.51
2023-05-17T12:26:44.666Z,30.51
2023-05-17T12:27:44.712Z,30.55
2023-05-17T12:28:44.650Z,30.53
2023-05-17T12:29:44.621Z,30.54
2023-05-17T12:30:44.627Z,30.56
2023-05-17T12:31:44.592Z,30.58
2023-05-17T12:32:44.652Z,30.55
2023-05-17T12:33:44.728Z,30.59
2023-05-17T12:34:44.579Z,30.56
2023-05-17T12:35:44.555Z,30.61
2023-05-17T12:36:44.564Z,30.60
2023-05-17T12:37:44.610Z,30.62
2023-05-17T12:38:44.548Z,30.78
2023-05-17T12:39:44.539Z,31.19
2023-05-17T12:40:44.543Z,31.22
2023-05-17T12:41:44.536Z,31.44
2023-05-17T12:42:44.565Z,31.45
2023-05-17T12:43:44.623Z,31.68
2023-05-17T12:44:44.668Z,31.59
2023-05-17T12:45:44.689Z,30.28
2023-05-17T12:46:44.743Z,29.45
2023-05-17T12:47:44.800Z,28.72
2023-05-17T12:48:44.769Z,28.67
2023-05-17T12:49:44.766Z,29.06
2023-05-17T12:50:44.809Z,29.17
2023-05-17T12:51:44.847Z,29.07
2023-05-17T12:52:44.919Z,28.73
2023-05-17T12:53:44.953Z,28.90